Time;durP1;ratioP1;P1;durP2;ratioP2;P2;SDS_P1;SDS_P2;PMS_P1;PMS_P2;Temp;Humidity;BMP_temperature;BMP_pressure;BME280_temperature;BME280_humidity;BME280_pressure;Samples;Min_cycle;Max_cycle;Signal;HPM_P1;HPM_P2
2023/02/19 00:01:39;;;;;;;4.03;1.50;;;;;;;;;;6206851;23;20410;-76
2023/02/19 00:04:07;;;;;;;2.10;1.80;;;;;;;;;;6206576;23;20419;-76
2023/02/19 00:06:36;;;;;;;3.07;1.90;;;;;;;;;;6207082;23;20442;-82
2023/02/19 00:09:03;;;;;;;1.50;1.40;;;;;;;;;;6207451;23;20835;-76
2023/02/19 00:11:31;;;;;;;2.20;1.80;;;;;;;;;;6207636;23;20532;-76
2023/02/19 00:13:59;;;;;;;2.23;1.60;;;;;;;;;;6207753;23;20399;-76
2023/02/19 00:16:27;;;;;;;1.80;1.60;;;;;;;;;;6207898;23;20494;-77
2023/02/19 00:18:55;;;;;;;1.90;1.40;;;;;;;;;;6207545;23;20415;-78
2023/02/19 00:21:22;;;;;;;2.07;1.50;;;;;;;;;;6207653;23;20434;-78
2023/02/19 00:23:52;;;;;;;1.80;1.70;;;;;;;;;;6207787;23;20630;-76
2023/02/19 00:26:19;;;;;;;2.40;1.63;;;;;;;;;;6208273;23;20434;-76
2023/02/19 00:28:46;;;;;;;2.23;1.83;;;;;;;;;;6207956;23;20470;-75
2023/02/19 00:31:17;;;;;;;2.30;2.10;;;;;;;;;;6207683;23;20411;-77
2023/02/19 00:33:44;;;;;;;3.73;2.07;;;;;;;;;;6207083;23;20904;-78
2023/02/19 00:36:11;;;;;;;1.63;1.53;;;;;;;;;;6207418;23;20418;-75
2023/02/19 00:38:39;;;;;;;2.00;1.80;;;;;;;;;;6207502;23;20414;-76
2023/02/19 00:41:18;;;;;;;2.03;1.70;;;;;;;;;;6207644;23;20418;-77
2023/02/19 00:43:46;;;;;;;1.97;1.87;;;;;;;;;;6207106;23;20450;-77
2023/02/19 00:46:13;;;;;;;2.03;1.83;;;;;;;;;;6207114;23;20653;-76
2023/02/19 00:48:40;;;;;;;2.30;1.67;;;;;;;;;;6207063;23;20786;-76
2023/02/19 00:51:07;;;;;;;3.13;2.93;;;;;;;;;;6207233;23;20411;-76
2023/02/19 00:53:34;;;;;;;1.50;1.40;;;;;;;;;;6207179;23;20417;-77
2023/02/19 00:56:01;;;;;;;1.60;1.40;;;;;;;;;;6207380;23;20403;-76
2023/02/19 00:58:30;;;;;;;1.80;1.70;;;;;;;;;;6207161;23;20414;-75
2023/02/19 01:00:57;;;;;;;1.43;1.30;;;;;;;;;;6207687;23;20414;-76
2023/02/19 01:03:24;;;;;;;1.70;1.60;;;;;;;;;;6207869;23;20422;-76
2023/02/19 01:05:52;;;;;;;2.07;1.80;;;;;;;;;;6207213;23;20407;-76
2023/02/19 01:08:20;;;;;;;1.70;1.60;;;;;;;;;;6207308;23;20488;-77
2023/02/19 01:10:47;;;;;;;2.00;1.67;;;;;;;;;;6207621;23;20415;-77
2023/02/19 01:13:14;;;;;;;2.13;1.30;;;;;;;;;;6207041;23;20391;-79
2023/02/19 01:15:42;;;;;;;1.90;1.33;;;;;;;;;;6207243;23;20912;-75
2023/02/19 01:18:09;;;;;;;2.53;1.70;;;;;;;;;;6207555;23;20414;-76
2023/02/19 01:20:39;;;;;;;1.70;1.50;;;;;;;;;;6207569;23;20453;-79
2023/02/19 01:23:06;;;;;;;2.80;1.90;;;;;;;;;;6207375;23;20936;-79
2023/02/19 01:25:33;;;;;;;2.07;1.40;;;;;;;;;;6207880;23;20475;-79
2023/02/19 01:28:00;;;;;;;1.80;1.70;;;;;;;;;;6207339;23;21047;-79
2023/02/19 01:30:27;;;;;;;2.30;1.73;;;;;;;;;;6207655;23;20419;-80
2023/02/19 01:32:55;;;;;;;1.97;1.40;;;;;;;;;;6208382;23;20403;-76
2023/02/19 01:35:23;;;;;;;1.83;1.70;;;;;;;;;;6207721;23;20411;-77
2023/02/19 01:37:50;;;;;;;3.60;1.77;;;;;;;;;;6206749;23;20403;-77
2023/02/19 01:40:17;;;;;;;2.33;1.60;;;;;;;;;;6207329;23;20399;-76
2023/02/19 01:42:44;;;;;;;1.63;1.50;;;;;;;;;;6207334;23;20413;-75
2023/02/19 01:45:26;;;;;;;2.17;1.50;;;;;;;;;;6207705;23;20756;-78
2023/02/19 01:48:01;;;;;;;2.40;2.00;;;;;;;;;;6208631;23;20418;-76
2023/02/19 01:50:30;;;;;;;1.97;1.87;;;;;;;;;;6208712;23;20857;-77
2023/02/19 01:52:57;;;;;;;2.03;1.83;;;;;;;;;;6208767;23;20493;-76
2023/02/19 01:55:25;;;;;;;2.50;1.73;;;;;;;;;;6209106;23;20903;-75
2023/02/19 01:57:54;;;;;;;1.80;1.70;;;;;;;;;;6208897;23;20769;-76
2023/02/19 02:00:23;;;;;;;1.30;1.20;;;;;;;;;;6208572;23;20417;-81
2023/02/19 02:02:52;;;;;;;2.10;1.87;;;;;;;;;;6208572;23;20399;-80
2023/02/19 02:05:24;;;;;;;2.40;1.70;;;;;;;;;;6208859;23;20417;-82
2023/02/19 02:10:37;;;;;;;2.20;2.03;;;;;;;;;;6209538;23;20457;-79
2023/02/19 02:13:04;;;;;;;2.73;2.20;;;;;;;;;;6208666;23;20692;-78
2023/02/19 02:15:37;;;;;;;3.27;1.67;;;;;;;;;;6208805;23;20419;-79
2023/02/19 02:18:09;;;;;;;1.80;1.70;;;;;;;;;;6208657;23;20392;-78
2023/02/19 02:20:46;;;;;;;2.53;2.33;;;;;;;;;;6208341;23;20782;-79
2023/02/19 02:23:17;;;;;;;2.63;2.07;;;;;;;;;;6208332;23;20387;-79
2023/02/19 02:25:56;;;;;;;2.33;2.13;;;;;;;;;;6208456;23;20836;-82
2023/02/19 02:28:34;;;;;;;2.57;2.37;;;;;;;;;;6208150;23;20438;-83
2023/02/19 02:31:05;;;;;;;2.73;2.20;;;;;;;;;;6208604;23;20494;-81
2023/02/19 02:33:33;;;;;;;2.50;2.30;;;;;;;;;;6208697;23;20398;-82
2023/02/19 02:36:03;;;;;;;2.70;2.27;;;;;;;;;;6208197;23;20730;-79
2023/02/19 02:38:32;;;;;;;2.93;2.40;;;;;;;;;;6208934;23;20718;-81
2023/02/19 02:41:00;;;;;;;1.93;1.80;;;;;;;;;;6208341;23;20394;-79
2023/02/19 02:43:27;;;;;;;3.10;2.40;;;;;;;;;;6207888;23;20602;-74
2023/02/19 02:45:54;;;;;;;4.50;2.97;;;;;;;;;;6208485;23;20407;-76
2023/02/19 02:48:25;;;;;;;3.30;3.00;;;;;;;;;;6208112;23;20518;-78
2023/02/19 02:50:54;;;;;;;3.87;2.83;;;;;;;;;;6208368;23;20395;-81
2023/02/19 02:56:07;;;;;;;2.63;2.37;;;;;;;;;;6208186;23;20387;-75
2023/02/19 02:58:35;;;;;;;2.47;2.13;;;;;;;;;;6208239;23;20671;-76
2023/02/19 03:03:54;;;;;;;2.90;2.60;;;;;;;;;;6208184;23;20919;-74
2023/02/19 03:06:22;;;;;;;3.47;2.20;;;;;;;;;;6208787;23;20402;-74
2023/02/19 03:08:51;;;;;;;3.10;2.43;;;;;;;;;;6208809;23;20455;-78
2023/02/19 03:19:42;;;;;;;3.10;2.77;;;;;;;;;;6209447;23;20367;-74
2023/02/19 03:22:12;;;;;;;3.20;2.37;;;;;;;;;;6209441;23;20851;-75
2023/02/19 03:27:27;;;;;;;4.23;3.13;;;;;;;;;;6208348;23;20383;-75
2023/02/19 03:29:55;;;;;;;4.97;3.70;;;;;;;;;;6208388;23;20985;-75
2023/02/19 03:32:24;;;;;;;3.30;2.57;;;;;;;;;;6209257;23;20417;-83
2023/02/19 03:34:56;;;;;;;3.00;2.77;;;;;;;;;;6211509;23;20411;-94
2023/02/19 03:37:27;;;;;;;3.10;2.83;;;;;;;;;;6220575;23;20474;-92
2023/02/19 03:39:55;;;;;;;2.73;2.53;;;;;;;;;;6224688;23;20392;-91
2023/02/19 03:42:26;;;;;;;4.10;3.00;;;;;;;;;;6219668;23;20403;-91
2023/02/19 03:45:00;;;;;;;3.10;2.80;;;;;;;;;;6222268;23;20392;-91
2023/02/19 03:47:28;;;;;;;3.13;2.83;;;;;;;;;;6222989;23;20419;-94
2023/02/19 03:49:59;;;;;;;3.20;2.60;;;;;;;;;;6229679;23;20754;-93
2023/02/19 03:52:33;;;;;;;3.77;3.37;;;;;;;;;;6230586;23;20479;-91
2023/02/19 03:55:04;;;;;;;3.50;3.10;;;;;;;;;;6231922;23;20468;-90
2023/02/19 03:57:34;;;;;;;3.90;3.30;;;;;;;;;;6219611;23;20463;-91
2023/02/19 04:00:04;;;;;;;2.93;2.73;;;;;;;;;;6215190;23;20445;-90
2023/02/19 04:02:35;;;;;;;3.03;2.70;;;;;;;;;;6216621;23;20923;-92
2023/02/19 04:05:07;;;;;;;3.27;2.97;;;;;;;;;;6212588;23;20407;-92
2023/02/19 04:07:37;;;;;;;3.57;3.13;;;;;;;;;;6215217;23;20430;-91
2023/02/19 04:10:04;;;;;;;2.63;2.43;;;;;;;;;;6216163;23;20403;-92
2023/02/19 04:12:32;;;;;;;3.63;3.10;;;;;;;;;;6213218;23;20417;-91
2023/02/19 04:15:03;;;;;;;3.60;2.80;;;;;;;;;;6212645;23;20458;-90
2023/02/19 04:17:32;;;;;;;2.63;2.43;;;;;;;;;;6215478;23;20442;-90
2023/02/19 04:19:59;;;;;;;2.90;2.70;;;;;;;;;;6226618;23;20458;-90
2023/02/19 04:22:28;;;;;;;4.40;2.70;;;;;;;;;;6220334;23;20392;-91
2023/02/19 04:24:55;;;;;;;3.30;3.00;;;;;;;;;;6214137;23;20410;-90
2023/02/19 04:27:22;;;;;;;3.57;3.07;;;;;;;;;;6219852;23;20490;-92
2023/02/19 04:29:50;;;;;;;2.10;1.90;;;;;;;;;;6218466;23;20730;-92
2023/02/19 04:32:17;;;;;;;3.00;2.70;;;;;;;;;;6217979;23;20410;-93
2023/02/19 04:34:44;;;;;;;4.87;2.93;;;;;;;;;;6216361;23;20411;-91
2023/02/19 04:37:11;;;;;;;3.50;2.50;;;;;;;;;;6227771;23;20503;-93
2023/02/19 04:39:40;;;;;;;2.70;2.50;;;;;;;;;;6233315;23;20387;-92
2023/02/19 04:42:08;;;;;;;3.33;2.97;;;;;;;;;;6221291;23;20403;-92
2023/02/19 04:44:35;;;;;;;2.80;1.80;;;;;;;;;;6219032;23;20502;-92
2023/02/19 04:47:02;;;;;;;6.40;2.80;;;;;;;;;;6215555;23;21019;-89
2023/02/19 04:49:29;;;;;;;3.27;2.87;;;;;;;;;;6214471;23;20469;-91
2023/02/19 04:51:56;;;;;;;4.40;2.77;;;;;;;;;;6220073;23;20710;-90
2023/02/19 04:54:23;;;;;;;5.23;2.33;;;;;;;;;;6214205;23;20407;-91
2023/02/19 04:56:52;;;;;;;2.77;2.30;;;;;;;;;;6220773;23;20396;-92
2023/02/19 04:59:19;;;;;;;2.53;2.07;;;;;;;;;;6216642;23;20494;-90
2023/02/19 05:01:46;;;;;;;2.87;2.40;;;;;;;;;;6218591;23;20415;-90
2023/02/19 05:04:13;;;;;;;3.47;2.83;;;;;;;;;;6219676;23;20406;-92
2023/02/19 05:06:40;;;;;;;2.83;2.20;;;;;;;;;;6217392;23;20486;-91
2023/02/19 05:09:07;;;;;;;2.40;2.20;;;;;;;;;;6215962;23;20445;-91
2023/02/19 05:11:35;;;;;;;2.37;2.17;;;;;;;;;;6221446;23;20407;-92
2023/02/19 05:14:03;;;;;;;2.43;1.83;;;;;;;;;;6218683;23;20396;-94
2023/02/19 05:16:31;;;;;;;4.03;2.73;;;;;;;;;;6216664;23;20435;-90
2023/02/19 05:18:59;;;;;;;2.20;2.03;;;;;;;;;;6223736;23;20391;-93
2023/02/19 05:21:26;;;;;;;2.67;1.87;;;;;;;;;;6218788;23;20435;-92
2023/02/19 05:23:53;;;;;;;3.47;2.23;;;;;;;;;;6218833;23;20399;-92
2023/02/19 05:26:22;;;;;;;2.13;1.93;;;;;;;;;;6218664;23;20399;-93
2023/02/19 05:28:49;;;;;;;2.50;2.13;;;;;;;;;;6216569;23;20533;-94
2023/02/19 05:31:18;;;;;;;2.00;1.80;;;;;;;;;;6216093;23;20493;-92
2023/02/19 05:33:49;;;;;;;3.23;2.33;;;;;;;;;;6225267;23;20417;-91
2023/02/19 05:36:16;;;;;;;1.97;1.60;;;;;;;;;;6217076;23;20426;-93
2023/02/19 05:38:44;;;;;;;2.67;2.30;;;;;;;;;;6219217;23;20407;-94
2023/02/19 05:41:12;;;;;;;2.27;2.07;;;;;;;;;;6217938;23;20469;-92
2023/02/19 05:43:39;;;;;;;2.03;1.83;;;;;;;;;;6221541;23;20885;-92
2023/02/19 05:46:07;;;;;;;3.70;2.10;;;;;;;;;;6219654;23;20417;-94
2023/02/19 05:48:36;;;;;;;2.37;2.17;;;;;;;;;;6218726;23;20485;-92
2023/02/19 05:51:03;;;;;;;2.20;2.03;;;;;;;;;;6219155;23;20431;-91
2023/02/19 05:53:30;;;;;;;2.30;2.10;;;;;;;;;;6221595;23;20539;-90
2023/02/19 05:55:57;;;;;;;2.10;1.77;;;;;;;;;;6222838;23;20446;-91
2023/02/19 05:58:25;;;;;;;2.97;2.23;;;;;;;;;;6223624;23;20411;-91
2023/02/19 06:00:52;;;;;;;2.77;2.40;;;;;;;;;;6233519;23;20399;-91
2023/02/19 06:03:19;;;;;;;2.00;1.80;;;;;;;;;;6225227;23;20490;-94
2023/02/19 06:05:47;;;;;;;1.77;1.67;;;;;;;;;;6221566;23;20419;-93
2023/02/19 06:08:15;;;;;;;2.17;1.97;;;;;;;;;;6237335;23;20415;-92
2023/02/19 06:10:43;;;;;;;2.00;1.83;;;;;;;;;;6231950;23;20454;-92
2023/02/19 06:13:10;;;;;;;2.70;2.50;;;;;;;;;;6224087;23;20434;-92
2023/02/19 06:15:37;;;;;;;2.03;1.90;;;;;;;;;;6225821;23;20388;-91
2023/02/19 06:18:04;;;;;;;3.00;1.93;;;;;;;;;;6228978;23;20423;-92
2023/02/19 06:20:32;;;;;;;1.87;1.70;;;;;;;;;;6232699;23;20469;-93
2023/02/19 06:23:00;;;;;;;2.37;1.87;;;;;;;;;;6234376;23;20423;-93
2023/02/19 06:25:27;;;;;;;2.77;2.30;;;;;;;;;;6236992;23;20430;-93
2023/02/19 06:27:54;;;;;;;3.17;2.60;;;;;;;;;;6232122;23;20455;-93
2023/02/19 06:30:21;;;;;;;3.07;2.77;;;;;;;;;;6225576;23;20443;-93
2023/02/19 06:32:48;;;;;;;2.53;2.30;;;;;;;;;;6231840;23;20471;-91
2023/02/19 06:35:16;;;;;;;2.83;1.93;;;;;;;;;;6234083;23;20392;-93
2023/02/19 06:37:43;;;;;;;2.83;2.30;;;;;;;;;;6225760;23;20442;-93
2023/02/19 06:40:11;;;;;;;1.80;1.70;;;;;;;;;;6233203;23;20427;-95
2023/02/19 06:42:38;;;;;;;1.87;1.77;;;;;;;;;;6230571;23;20980;-95
2023/02/19 06:45:06;;;;;;;2.20;1.60;;;;;;;;;;6228158;23;20423;-92
2023/02/19 06:47:34;;;;;;;2.30;2.10;;;;;;;;;;6229078;23;20483;-92
2023/02/19 06:50:01;;;;;;;3.50;2.63;;;;;;;;;;6222602;23;20876;-93
2023/02/19 06:52:28;;;;;;;2.40;2.13;;;;;;;;;;6230014;23;20431;-94
2023/02/19 06:54:55;;;;;;;4.60;3.03;;;;;;;;;;6229646;23;20487;-92
2023/02/19 06:57:24;;;;;;;3.70;2.30;;;;;;;;;;6234468;23;20473;-92
2023/02/19 06:59:51;;;;;;;2.80;2.20;;;;;;;;;;6232298;23;20439;-90
2023/02/19 07:02:18;;;;;;;2.03;1.90;;;;;;;;;;6226182;23;20410;-93
2023/02/19 07:04:45;;;;;;;2.30;2.10;;;;;;;;;;6237803;23;20403;-94
2023/02/19 07:07:12;;;;;;;2.37;2.07;;;;;;;;;;6235088;23;20380;-93
2023/02/19 07:09:39;;;;;;;2.50;2.30;;;;;;;;;;6234315;23;20440;-91
2023/02/19 07:12:06;;;;;;;2.20;2.00;;;;;;;;;;6232405;23;20410;-93
2023/02/19 07:14:35;;;;;;;2.77;2.07;;;;;;;;;;6237186;23;20439;-92
2023/02/19 07:17:02;;;;;;;2.50;2.30;;;;;;;;;;6240265;22;20419;-96
2023/02/19 07:19:29;;;;;;;2.50;1.97;;;;;;;;;;6240199;23;20426;-85
2023/02/19 07:21:56;;;;;;;2.67;2.37;;;;;;;;;;6238446;22;20446;-92
2023/02/19 07:24:23;;;;;;;2.50;2.30;;;;;;;;;;6228761;23;20423;-91
2023/02/19 07:26:50;;;;;;;2.73;2.20;;;;;;;;;;6228220;23;20414;-94
2023/02/19 07:29:18;;;;;;;2.40;2.20;;;;;;;;;;6225887;23;20648;-94
2023/02/19 07:31:46;;;;;;;3.00;2.40;;;;;;;;;;6228346;23;20388;-94
2023/02/19 07:34:13;;;;;;;2.37;1.90;;;;;;;;;;6229330;23;20403;-94
2023/02/19 07:36:40;;;;;;;4.37;3.23;;;;;;;;;;6229097;23;20454;-94
2023/02/19 07:39:08;;;;;;;3.20;2.40;;;;;;;;;;6233316;23;20427;-94
2023/02/19 07:41:35;;;;;;;2.30;2.13;;;;;;;;;;6234073;23;20490;-92
2023/02/19 07:44:02;;;;;;;2.67;2.47;;;;;;;;;;6228959;23;20424;-94
2023/02/19 07:46:29;;;;;;;4.23;2.97;;;;;;;;;;6230062;23;20471;-93
2023/02/19 07:48:57;;;;;;;2.87;2.23;;;;;;;;;;6228168;23;20485;-94
2023/02/19 07:51:25;;;;;;;2.57;2.37;;;;;;;;;;6225828;23;20451;-94
2023/02/19 07:53:52;;;;;;;3.30;2.53;;;;;;;;;;6226171;23;20419;-91
2023/02/19 07:56:19;;;;;;;3.17;2.87;;;;;;;;;;6232296;23;20418;-93
2023/02/19 07:58:47;;;;;;;2.60;2.40;;;;;;;;;;6236656;23;20419;-94
2023/02/19 08:01:15;;;;;;;2.00;1.80;;;;;;;;;;6240905;22;20419;-94
2023/02/19 08:03:42;;;;;;;3.90;2.37;;;;;;;;;;6229986;23;20450;-92
2023/02/19 08:06:11;;;;;;;3.17;2.97;;;;;;;;;;6230438;23;20421;-94
2023/02/19 08:08:38;;;;;;;2.67;2.47;;;;;;;;;;6230766;23;20489;-94
2023/02/19 08:13:51;;;;;;;2.73;2.53;;;;;;;;;;6224878;23;20447;-93
2023/02/19 08:16:19;;;;;;;2.43;2.13;;;;;;;;;;6221780;23;20414;-94
2023/02/19 08:18:46;;;;;;;4.63;2.40;;;;;;;;;;6218656;23;20942;-95
2023/02/19 08:21:17;;;;;;;2.10;2.00;;;;;;;;;;6221048;23;20439;-93
2023/02/19 08:23:45;;;;;;;4.47;2.40;;;;;;;;;;6222628;23;20399;-93
2023/02/19 08:26:12;;;;;;;2.73;2.13;;;;;;;;;;6226702;23;20449;-94
2023/02/19 08:28:39;;;;;;;2.47;2.27;;;;;;;;;;6221014;23;20403;-95
2023/02/19 08:31:07;;;;;;;2.90;2.60;;;;;;;;;;6224149;23;20457;-95
2023/02/19 08:33:34;;;;;;;1.90;1.70;;;;;;;;;;6223160;23;20408;-93
2023/02/19 08:36:03;;;;;;;2.63;2.43;;;;;;;;;;6226792;23;20471;-92
2023/02/19 08:38:33;;;;;;;2.50;2.30;;;;;;;;;;6230280;23;20411;-93
2023/02/19 08:41:00;;;;;;;2.30;2.10;;;;;;;;;;6228251;23;20391;-93
2023/02/19 08:43:27;;;;;;;2.30;2.03;;;;;;;;;;6230056;23;20435;-91
2023/02/19 08:45:55;;;;;;;2.87;2.50;;;;;;;;;;6226429;23;20787;-95
2023/02/19 08:48:22;;;;;;;2.23;2.03;;;;;;;;;;6223141;23;20406;-91
2023/02/19 08:50:56;;;;;;;3.23;2.10;;;;;;;;;;6222992;23;20446;-92
2023/02/19 08:53:23;;;;;;;2.83;2.20;;;;;;;;;;6224080;23;20487;-94
2023/02/19 08:55:52;;;;;;;2.00;1.90;;;;;;;;;;6226500;23;20673;-92
2023/02/19 08:58:19;;;;;;;2.90;2.70;;;;;;;;;;6225574;23;20948;-92
2023/02/19 09:00:46;;;;;;;2.40;2.20;;;;;;;;;;6226149;23;20411;-93
2023/02/19 09:03:14;;;;;;;2.30;2.10;;;;;;;;;;6224050;23;20407;-93
2023/02/19 09:05:41;;;;;;;2.77;2.57;;;;;;;;;;6223064;23;20399;-94
2023/02/19 09:08:08;;;;;;;3.10;2.80;;;;;;;;;;6220704;23;20491;-91
2023/02/19 09:10:35;;;;;;;2.93;2.63;;;;;;;;;;6221646;23;20511;-93
2023/02/19 09:13:03;;;;;;;3.53;2.20;;;;;;;;;;6223511;23;20403;-94
2023/02/19 09:15:32;;;;;;;4.03;3.00;;;;;;;;;;6224752;23;20415;-93
2023/02/19 09:17:59;;;;;;;2.67;2.47;;;;;;;;;;6220938;23;20434;-93
2023/02/19 09:20:26;;;;;;;2.40;2.20;;;;;;;;;;6223552;23;20786;-94
2023/02/19 09:22:57;;;;;;;4.30;2.40;;;;;;;;;;6220898;23;20471;-91
2023/02/19 09:25:24;;;;;;;2.57;2.30;;;;;;;;;;6222462;23;20418;-94
2023/02/19 09:27:54;;;;;;;1.90;1.70;;;;;;;;;;6222287;23;20426;-93
2023/02/19 09:30:23;;;;;;;1.80;1.70;;;;;;;;;;6218388;23;20521;-95
2023/02/19 09:32:50;;;;;;;2.10;1.90;;;;;;;;;;6221303;23;20401;-94
2023/02/19 09:35:17;;;;;;;2.23;2.03;;;;;;;;;;6224075;23;20427;-94
2023/02/19 09:37:44;;;;;;;1.70;1.60;;;;;;;;;;6214926;22;20817;-77
2023/02/19 09:40:12;;;;;;;7.73;2.43;;;;;;;;;;6207343;23;20405;-92
2023/02/19 09:42:40;;;;;;;2.00;1.90;;;;;;;;;;6214803;23;20397;-92
2023/02/19 09:45:08;;;;;;;1.30;1.20;;;;;;;;;;6223892;23;20471;-84
2023/02/19 09:47:37;;;;;;;1.30;1.20;;;;;;;;;;6210693;23;20893;-80
2023/02/19 09:50:06;;;;;;;1.30;1.00;;;;;;;;;;6207991;23;20792;-85
2023/02/19 09:52:36;;;;;;;1.00;0.87;;;;;;;;;;6207675;23;20939;-89
2023/02/19 09:55:04;;;;;;;2.17;1.00;;;;;;;;;;6209607;23;20400;-81
2023/02/19 09:57:34;;;;;;;1.07;0.80;;;;;;;;;;6209824;23;20521;-86
2023/02/19 10:00:04;;;;;;;0.90;0.80;;;;;;;;;;6210927;23;20422;-82
2023/02/19 10:02:31;;;;;;;1.50;0.80;;;;;;;;;;6207842;23;20441;-83
2023/02/19 10:05:00;;;;;;;1.10;1.00;;;;;;;;;;6214816;23;20411;-92
2023/02/19 10:07:33;;;;;;;1.00;0.90;;;;;;;;;;6213139;23;20417;-87
2023/02/19 10:10:02;;;;;;;1.30;1.20;;;;;;;;;;6208893;23;20440;-87
2023/02/19 10:12:30;;;;;;;1.30;1.00;;;;;;;;;;6209992;23;20929;-92
2023/02/19 10:15:00;;;;;;;1.10;0.97;;;;;;;;;;6210225;23;20391;-79
2023/02/19 10:17:30;;;;;;;0.80;0.70;;;;;;;;;;6209947;23;20415;-91
2023/02/19 10:19:57;;;;;;;1.10;0.80;;;;;;;;;;6209455;23;20423;-90
2023/02/19 10:22:26;;;;;;;0.80;0.73;;;;;;;;;;6208807;23;20392;-90
2023/02/19 10:24:54;;;;;;;1.37;0.90;;;;;;;;;;6211978;23;20485;-84
2023/02/19 10:27:21;;;;;;;1.00;0.80;;;;;;;;;;6207677;23;20426;-77
2023/02/19 10:29:50;;;;;;;1.40;0.80;;;;;;;;;;6206268;23;20403;-79
2023/02/19 10:32:21;;;;;;;1.57;0.90;;;;;;;;;;6222114;23;20470;-83
2023/02/19 10:34:48;;;;;;;1.30;0.80;;;;;;;;;;6217987;23;20487;-79
2023/02/19 10:37:17;;;;;;;1.30;1.00;;;;;;;;;;6220129;23;20727;-78
2023/02/19 10:39:47;;;;;;;1.63;1.00;;;;;;;;;;6219063;23;20404;-85
2023/02/19 10:42:21;;;;;;;1.73;1.20;;;;;;;;;;6214624;23;20415;-82
2023/02/19 10:44:49;;;;;;;1.47;1.13;;;;;;;;;;6224888;23;20447;-81
2023/02/19 10:47:17;;;;;;;1.10;0.80;;;;;;;;;;6227361;23;20471;-80
2023/02/19 10:49:47;;;;;;;1.13;0.90;;;;;;;;;;6228745;23;20941;-87
2023/02/19 10:52:17;;;;;;;1.13;0.90;;;;;;;;;;6230918;23;20423;-83
2023/02/19 10:54:46;;;;;;;0.90;0.80;;;;;;;;;;6222824;23;20403;-90
2023/02/19 10:57:24;;;;;;;1.93;0.90;;;;;;;;;;6218199;23;20822;-92
2023/02/19 10:59:52;;;;;;;1.10;1.00;;;;;;;;;;6213392;23;20915;-91
2023/02/19 11:02:20;;;;;;;1.53;0.93;;;;;;;;;;6212882;23;20442;-93
2023/02/19 11:05:03;;;;;;;1.63;1.03;;;;;;;;;;6214806;23;20900;-90
2023/02/19 11:07:30;;;;;;;1.17;0.90;;;;;;;;;;6214326;23;20392;-85
2023/02/19 11:09:59;;;;;;;1.10;0.80;;;;;;;;;;6211212;23;20769;-82
2023/02/19 11:12:28;;;;;;;2.17;1.00;;;;;;;;;;6212019;23;20764;-86
2023/02/19 11:14:56;;;;;;;3.00;0.80;;;;;;;;;;6212926;23;20569;-81
2023/02/19 11:17:24;;;;;;;1.00;0.80;;;;;;;;;;6213250;23;20478;-82
2023/02/19 11:19:52;;;;;;;1.13;0.90;;;;;;;;;;6217877;23;20418;-90
2023/02/19 11:22:20;;;;;;;1.33;0.90;;;;;;;;;;6222625;23;20388;-88
2023/02/19 11:24:48;;;;;;;1.37;0.83;;;;;;;;;;6209430;23;20407;-88
2023/02/19 11:27:19;;;;;;;0.80;0.70;;;;;;;;;;6216241;23;20411;-91
2023/02/19 11:29:46;;;;;;;0.80;0.70;;;;;;;;;;6224932;23;20884;-89
2023/02/19 11:32:28;;;;;;;1.53;0.90;;;;;;;;;;6218006;23;20451;-91
2023/02/19 11:35:10;;;;;;;3.93;1.20;;;;;;;;;;6218301;23;20411;-80
2023/02/19 11:37:37;;;;;;;4.40;1.00;;;;;;;;;;6209122;23;20414;-89
2023/02/19 11:40:05;;;;;;;1.77;1.00;;;;;;;;;;6209723;23;20414;-88
2023/02/19 11:42:39;;;;;;;0.90;0.80;;;;;;;;;;6224966;23;20388;-82
2023/02/19 11:45:14;;;;;;;2.07;0.90;;;;;;;;;;6222946;23;20912;-83
2023/02/19 11:47:51;;;;;;;1.33;1.00;;;;;;;;;;6217062;23;20395;-81
2023/02/19 11:50:22;;;;;;;1.40;1.00;;;;;;;;;;6221729;23;20785;-80
2023/02/19 11:52:53;;;;;;;1.20;1.10;;;;;;;;;;6218569;23;20454;-80
2023/02/19 11:55:25;;;;;;;1.70;0.93;;;;;;;;;;6211783;23;20396;-92
2023/02/19 11:57:55;;;;;;;1.10;0.80;;;;;;;;;;6208830;23;20430;-88
2023/02/19 12:00:24;;;;;;;1.27;1.10;;;;;;;;;;6209081;23;20398;-89
2023/02/19 12:03:10;;;;;;;1.10;1.00;;;;;;;;;;6207814;23;20402;-84
2023/02/19 12:05:50;;;;;;;1.10;1.00;;;;;;;;;;6206897;23;20835;-88
2023/02/19 12:08:32;;;;;;;1.07;0.90;;;;;;;;;;6209797;23;20395;-87
2023/02/19 12:11:09;;;;;;;1.37;1.17;;;;;;;;;;6207087;23;20429;-85
2023/02/19 12:13:42;;;;;;;1.00;0.90;;;;;;;;;;6212090;23;20415;-84
2023/02/19 12:16:16;;;;;;;1.57;1.17;;;;;;;;;;6210182;23;20391;-80
2023/02/19 12:18:54;;;;;;;1.33;1.17;;;;;;;;;;6216216;23;20475;-90
2023/02/19 12:21:25;;;;;;;1.13;1.00;;;;;;;;;;6221610;23;20502;-86
2023/02/19 12:24:09;;;;;;;1.20;1.00;;;;;;;;;;6207509;23;20428;-84
2023/02/19 12:26:38;;;;;;;1.23;1.03;;;;;;;;;;6205486;23;20499;-80
2023/02/19 12:29:23;;;;;;;1.00;0.90;;;;;;;;;;6206788;23;20411;-82
2023/02/19 12:32:07;;;;;;;1.20;1.10;;;;;;;;;;6206401;23;20522;-80
2023/02/19 12:34:44;;;;;;;1.63;1.03;;;;;;;;;;6206070;23;20406;-81
2023/02/19 12:37:18;;;;;;;5.73;1.20;;;;;;;;;;6206353;23;20749;-82
2023/02/19 12:39:48;;;;;;;1.83;1.10;;;;;;;;;;6206617;23;20376;-79
2023/02/19 12:42:22;;;;;;;1.93;1.20;;;;;;;;;;6206889;23;20403;-77
2023/02/19 12:44:53;;;;;;;9.13;1.50;;;;;;;;;;6205521;23;20489;-76
2023/02/19 12:47:22;;;;;;;2.70;0.93;;;;;;;;;;6205992;23;20473;-76
2023/02/19 12:49:50;;;;;;;1.63;1.10;;;;;;;;;;6204696;23;21011;-76
2023/02/19 12:52:19;;;;;;;1.53;1.43;;;;;;;;;;6206189;23;20459;-82
2023/02/19 12:54:48;;;;;;;3.00;1.00;;;;;;;;;;6207286;23;20425;-81
2023/02/19 12:57:17;;;;;;;1.53;0.77;;;;;;;;;;6206524;23;20415;-79
2023/02/19 12:59:48;;;;;;;1.73;0.90;;;;;;;;;;6206119;23;20411;-76
2023/02/19 13:02:20;;;;;;;1.37;1.20;;;;;;;;;;6206667;23;20413;-78
2023/02/19 13:04:49;;;;;;;2.03;1.10;;;;;;;;;;6206866;23;20392;-79
2023/02/19 13:07:19;;;;;;;2.10;0.90;;;;;;;;;;6206293;23;20438;-77
2023/02/19 13:09:48;;;;;;;0.97;0.87;;;;;;;;;;6206505;23;20490;-83
2023/02/19 13:12:18;;;;;;;1.63;1.10;;;;;;;;;;6205955;23;20451;-76
2023/02/19 13:14:47;;;;;;;1.80;1.00;;;;;;;;;;6206375;23;20697;-77
2023/02/19 13:17:20;;;;;;;1.37;0.90;;;;;;;;;;6206651;23;20419;-78
2023/02/19 13:19:49;;;;;;;1.97;0.93;;;;;;;;;;6201310;23;20376;-80
2023/02/19 13:25:05;;;;;;;3.50;1.00;;;;;;;;;;6202500;23;20391;-81
2023/02/19 13:27:41;;;;;;;1.20;1.00;;;;;;;;;;6202929;23;20411;-81
2023/02/19 13:30:20;;;;;;;1.53;0.93;;;;;;;;;;6202474;23;20741;-80
2023/02/19 13:32:55;;;;;;;1.90;0.93;;;;;;;;;;6202134;23;20435;-76
2023/02/19 13:35:40;;;;;;;1.30;1.10;;;;;;;;;;6202681;23;20379;-76
2023/02/19 13:38:10;;;;;;;0.83;0.80;;;;;;;;;;6182589;23;20514;-77
2023/02/19 13:40:41;;;;;;;0.80;0.70;;;;;;;;;;6203019;23;20403;-77
2023/02/19 13:43:09;;;;;;;3.00;0.90;;;;;;;;;;6204752;23;20506;-79
2023/02/19 13:45:38;;;;;;;2.40;0.93;;;;;;;;;;6204598;23;20643;-81
2023/02/19 13:48:26;;;;;;;1.00;0.90;;;;;;;;;;6204712;23;20493;-78
2023/02/19 13:51:20;;;;;;;1.33;0.80;;;;;;;;;;6204488;23;20478;-78
2023/02/19 13:53:58;;;;;;;0.87;0.80;;;;;;;;;;6204434;23;20432;-79
2023/02/19 13:56:38;;;;;;;1.50;0.90;;;;;;;;;;6205048;23;20387;-82
2023/02/19 13:59:25;;;;;;;1.10;1.00;;;;;;;;;;6206153;23;20717;-80
2023/02/19 14:02:14;;;;;;;1.33;1.20;;;;;;;;;;6205090;23;20668;-78
2023/02/19 14:04:45;;;;;;;2.10;1.00;;;;;;;;;;6204136;23;20392;-80
2023/02/19 14:07:36;;;;;;;1.53;0.90;;;;;;;;;;6205650;23;20407;-87
2023/02/19 14:10:06;;;;;;;1.33;1.10;;;;;;;;;;6175962;23;20419;-78
2023/02/19 14:12:34;;;;;;;1.30;1.00;;;;;;;;;;6205299;23;20442;-82
2023/02/19 14:15:16;;;;;;;1.03;0.90;;;;;;;;;;6205977;23;20956;-80
2023/02/19 14:17:44;;;;;;;1.00;0.90;;;;;;;;;;6204747;23;20493;-81
2023/02/19 14:20:38;;;;;;;2.33;1.37;;;;;;;;;;6205060;23;20554;-85
2023/02/19 14:23:16;;;;;;;1.70;1.10;;;;;;;;;;6152271;23;20419;-90
2023/02/19 14:25:50;;;;;;;1.30;1.20;;;;;;;;;;6222153;23;20399;-92
2023/02/19 14:28:28;;;;;;;1.00;0.90;;;;;;;;;;6212117;23;20430;-92
2023/02/19 14:30:57;;;;;;;1.43;1.00;;;;;;;;;;6210536;23;20458;-90
2023/02/19 14:33:26;;;;;;;0.87;0.80;;;;;;;;;;6213308;23;20411;-91
2023/02/19 14:35:54;;;;;;;3.23;1.03;;;;;;;;;;6213764;23;20446;-93
2023/02/19 14:38:22;;;;;;;1.57;1.13;;;;;;;;;;6212602;23;21019;-89
2023/02/19 14:40:52;;;;;;;1.10;1.00;;;;;;;;;;6207945;23;20521;-92
2023/02/19 14:43:20;;;;;;;0.90;0.80;;;;;;;;;;6210663;23;20404;-90
2023/02/19 14:45:48;;;;;;;1.30;1.00;;;;;;;;;;6211149;23;20901;-92
2023/02/19 14:48:18;;;;;;;1.47;1.37;;;;;;;;;;6210855;23;20407;-91
2023/02/19 14:50:48;;;;;;;1.23;0.97;;;;;;;;;;6210409;23;20407;-93
2023/02/19 14:53:16;;;;;;;2.10;1.40;;;;;;;;;;6210111;23;20450;-92
2023/02/19 14:55:44;;;;;;;1.20;1.10;;;;;;;;;;6211010;23;20411;-85
2023/02/19 14:58:17;;;;;;;2.23;1.40;;;;;;;;;;6213610;23;20449;-92
2023/02/19 15:00:44;;;;;;;1.00;0.90;;;;;;;;;;6209381;23;20390;-91
2023/02/19 15:03:25;;;;;;;1.20;1.07;;;;;;;;;;6213984;23;20452;-91
2023/02/19 15:05:56;;;;;;;1.67;1.20;;;;;;;;;;6211462;23;20395;-93
2023/02/19 15:08:27;;;;;;;2.10;1.40;;;;;;;;;;6209047;23;20423;-81
2023/02/19 15:10:55;;;;;;;2.30;1.20;;;;;;;;;;6204962;23;20395;-80
2023/02/19 15:13:26;;;;;;;3.37;1.10;;;;;;;;;;6207606;23;20521;-80
2023/02/19 15:15:54;;;;;;;1.50;1.00;;;;;;;;;;6210180;23;20391;-81
2023/02/19 15:18:23;;;;;;;3.33;1.10;;;;;;;;;;6211344;23;20411;-77
2023/02/19 15:20:51;;;;;;;2.00;1.03;;;;;;;;;;6213388;23;20435;-82
2023/02/19 15:23:21;;;;;;;1.43;1.20;;;;;;;;;;6206980;23;20400;-85